Time;durP1;ratioP1;P1;durP2;ratioP2;P2;SDS_P1;SDS_P2;PMS_P1;PMS_P2;Temp;Humidity;BMP_temperature;BMP_pressure;BME280_temperature;BME280_humidity;BME280_pressure;Samples;Min_cycle;Max_cycle;Signal;HPM_P1;HPM_P2
2022/03/30 00:00:28;;;;;;;31.83;17.80;;;;;;;7.70;76.60;100604.94;5250607;28;20041;-66
2022/03/30 00:03:00;;;;;;;30.55;17.67;;;;;;;7.64;76.68;100604.38;5251622;28;20033;-66
2022/03/30 00:05:31;;;;;;;36.78;19.52;;;;;;;7.68;76.92;100605.03;5252768;28;20076;-66
2022/03/30 00:08:03;;;;;;;29.45;17.38;;;;;;;7.65;76.64;100603.44;5240942;28;20851;-66
2022/03/30 00:10:35;;;;;;;33.42;18.65;;;;;;;7.64;77.85;100604.38;5243087;28;20041;-66
2022/03/30 00:13:06;;;;;;;34.38;17.73;;;;;;;7.56;76.91;100608.53;5243175;28;20284;-66
2022/03/30 00:15:37;;;;;;;36.85;18.92;;;;;;;7.51;77.12;100607.97;5240902;28;20056;-66
2022/03/30 00:18:09;;;;;;;35.15;18.42;;;;;;;7.51;76.55;100602.66;5243069;28;20028;-66
2022/03/30 00:20:40;;;;;;;31.40;17.67;;;;;;;7.52;77.17;100609.69;5241893;28;20090;-66
2022/03/30 00:23:12;;;;;;;33.58;18.48;;;;;;;7.50;77.19;100607.13;5244663;28;20045;-66
2022/03/30 00:25:43;;;;;;;32.88;18.30;;;;;;;7.49;77.61;100604.56;5240504;28;20506;-66
2022/03/30 00:28:14;;;;;;;32.35;17.85;;;;;;;7.34;76.98;100607.28;5242905;28;20029;-66
2022/03/30 00:30:46;;;;;;;35.75;19.08;;;;;;;7.27;77.14;100606.03;5238121;28;20075;-66
2022/03/30 00:33:17;;;;;;;32.58;18.90;;;;;;;7.33;78.84;100602.09;5241785;28;20029;-66
2022/03/30 00:35:49;;;;;;;33.95;18.25;;;;;;;7.31;77.49;100596.06;5239401;28;21058;-66
2022/03/30 00:38:20;;;;;;;32.10;19.48;;;;;;;7.30;78.63;100599.66;5241074;28;20040;-66
2022/03/30 00:40:52;;;;;;;34.60;18.95;;;;;;;7.21;78.10;100583.41;5246802;28;20025;-66
2022/03/30 00:43:23;;;;;;;36.40;18.77;;;;;;;7.23;78.69;100583.31;5245333;28;20523;-66
2022/03/30 00:45:55;;;;;;;35.03;18.77;;;;;;;7.20;79.01;100576.38;5245428;28;20037;-66
2022/03/30 00:48:26;;;;;;;35.70;18.52;;;;;;;7.19;79.32;100587.09;5241051;28;20032;-66
2022/03/30 00:50:58;;;;;;;38.15;19.10;;;;;;;7.13;78.26;100587.50;5241403;28;20020;-66
2022/03/30 00:53:29;;;;;;;32.70;18.60;;;;;;;7.03;78.78;100587.25;5252259;28;20028;-66
2022/03/30 00:56:01;;;;;;;34.42;19.23;;;;;;;7.00;79.60;100590.09;5248981;28;20024;-66
2022/03/30 00:58:33;;;;;;;32.90;17.63;;;;;;;6.90;79.59;100592.50;5221981;28;20111;-66
2022/03/30 01:01:07;;;;;;;35.08;18.95;;;;;;;6.80;79.39;100591.41;5246500;28;20029;-66
2022/03/30 01:03:38;;;;;;;34.22;18.77;;;;;;;6.77;79.57;100587.16;5242866;28;20052;-66
2022/03/30 01:06:09;;;;;;;33.40;18.80;;;;;;;6.72;79.71;100586.59;5244214;28;20026;-66
2022/03/30 01:08:42;;;;;;;35.42;19.55;;;;;;;6.59;79.70;100577.75;5241291;28;20033;-66
2022/03/30 01:11:15;;;;;;;40.83;19.27;;;;;;;6.58;80.29;100581.34;5239308;28;20775;-66
2022/03/30 01:13:46;;;;;;;34.17;19.05;;;;;;;6.46;79.83;100569.72;5249146;28;20056;-66
2022/03/30 01:16:17;;;;;;;33.65;18.63;;;;;;;6.43;80.83;100575.22;5250115;28;20143;-66
2022/03/30 01:18:49;;;;;;;35.58;18.70;;;;;;;6.41;80.91;100567.38;5238563;28;20065;-66
2022/03/30 01:21:20;;;;;;;32.45;18.30;;;;;;;6.38;81.37;100570.19;5245487;28;20371;-66
2022/03/30 01:23:51;;;;;;;34.20;18.27;;;;;;;6.33;80.94;100566.13;5245788;28;20040;-66
2022/03/30 01:26:25;;;;;;;37.25;17.83;;;;;;;6.32;81.33;100565.28;5249054;28;20029;-66
2022/03/30 01:28:57;;;;;;;36.13;18.27;;;;;;;6.32;82.22;100564.47;5240503;28;20037;-66
2022/03/30 01:34:18;;;;;;;36.63;18.48;;;;;;;6.22;81.09;100558.88;5245981;28;20033;-66
2022/03/30 01:36:49;;;;;;;38.90;19.25;;;;;;;6.19;81.45;100559.91;5245415;28;20029;-66
2022/03/30 01:39:20;;;;;;;36.35;19.20;;;;;;;6.21;82.26;100559.81;5238703;28;20043;-66
2022/03/30 01:41:52;;;;;;;36.78;19.15;;;;;;;6.12;81.77;100552.44;5240189;28;20288;-66
2022/03/30 01:44:24;;;;;;;38.08;18.80;;;;;;;6.13;81.93;100552.34;5236752;28;20044;-66
2022/03/30 01:46:55;;;;;;;38.40;19.30;;;;;;;6.08;81.42;100551.81;5240993;28;20028;-66
2022/03/30 01:49:26;;;;;;;36.60;19.90;;;;;;;6.09;81.96;100551.69;5239940;28;20029;-66
2022/03/30 01:51:58;;;;;;;34.72;18.55;;;;;;;6.11;82.85;100564.84;5240382;28;20463;-66
2022/03/30 01:54:34;;;;;;;41.50;19.20;;;;;;;6.02;82.09;100552.16;5237965;28;20650;-66
2022/03/30 01:57:06;;;;;;;38.03;19.08;;;;;;;6.05;81.84;100547.53;5241355;28;20036;-66
2022/03/30 01:59:39;;;;;;;35.30;18.05;;;;;;;5.97;82.09;100543.69;5243708;28;20383;-66
2022/03/30 02:02:11;;;;;;;37.05;18.30;;;;;;;5.96;82.53;100545.47;5235036;28;20026;-66
2022/03/30 02:04:43;;;;;;;33.47;18.75;;;;;;;5.86;82.94;100537.19;5240674;28;20383;-66
2022/03/30 02:07:14;;;;;;;35.95;18.83;;;;;;;5.84;83.51;100536.44;5238557;28;20738;-66
2022/03/30 02:09:46;;;;;;;42.00;19.40;;;;;;;5.77;83.80;100529.84;5241792;28;20417;-66
2022/03/30 02:12:17;;;;;;;41.25;19.90;;;;;;;5.72;83.25;100539.88;5245882;28;20258;-66
2022/03/30 02:14:51;;;;;;;39.75;18.73;;;;;;;5.72;83.23;100533.72;5247080;28;20119;-66
2022/03/30 02:17:25;;;;;;;39.33;20.20;;;;;;;5.72;84.86;100529.28;5243582;28;20057;-66
2022/03/30 02:19:57;;;;;;;39.05;20.20;;;;;;;5.66;84.13;100527.84;5238515;28;20036;-66
2022/03/30 02:22:28;;;;;;;40.33;19.98;;;;;;;5.66;83.97;100524.38;5240327;28;20431;-66
2022/03/30 02:24:59;;;;;;;41.30;19.15;;;;;;;5.65;84.82;100533.22;5239548;28;20112;-66
2022/03/30 02:27:31;;;;;;;36.28;19.30;;;;;;;5.58;84.09;100519.53;5238794;28;20021;-66
2022/03/30 02:30:03;;;;;;;37.05;19.30;;;;;;;5.54;84.25;100518.00;5237757;28;20434;-66
2022/03/30 02:32:36;;;;;;;37.50;19.23;;;;;;;5.49;84.31;100515.63;5244573;28;20055;-66
2022/03/30 02:35:08;;;;;;;36.90;18.88;;;;;;;5.45;84.20;100503.53;5252110;28;20017;-66
2022/03/30 02:37:39;;;;;;;38.53;19.95;;;;;;;5.43;84.65;100496.66;5249158;28;20045;-66
2022/03/30 02:40:11;;;;;;;35.28;19.05;;;;;;;5.34;85.15;100492.75;5252290;28;20397;-66
2022/03/30 02:42:42;;;;;;;37.38;19.50;;;;;;;5.36;85.06;100490.03;5248893;28;20044;-66
2022/03/30 02:45:14;;;;;;;35.90;19.38;;;;;;;5.39;85.28;100484.53;5246992;28;20037;-66
2022/03/30 02:50:58;;;;;;;35.72;19.30;;;;;;;5.32;85.43;100485.88;5229272;28;20506;-66
2022/03/30 02:53:30;;;;;;;;;;;;;;;5.33;83.80;100475.19;5228288;28;20038;-66
2022/03/30 02:56:02;;;;;;;43.45;19.45;;;;;;;5.29;85.85;100482.47;5241628;28;19917;-66
2022/03/30 02:58:33;;;;;;;39.70;18.80;;;;;;;5.32;85.54;100481.41;5247036;28;20124;-66
2022/03/30 03:01:04;;;;;;;33.67;18.15;;;;;;;5.27;84.81;100479.06;5247848;28;20060;-66
2022/03/30 03:03:35;;;;;;;37.58;20.13;;;;;;;5.22;85.34;100486.41;5248691;28;21925;-66
2022/03/30 03:06:08;;;;;;;35.75;19.00;;;;;;;5.17;85.44;100475.25;5252319;28;20029;-66
2022/03/30 03:08:40;;;;;;;40.17;18.48;;;;;;;5.13;86.22;100486.13;5244492;28;20025;-66
2022/03/30 03:11:11;;;;;;;33.42;18.65;;;;;;;5.20;86.78;100477.72;5251314;28;20040;-66
2022/03/30 03:13:42;;;;;;;36.97;18.92;;;;;;;5.15;86.30;100478.94;5254489;28;20037;-66
2022/03/30 03:16:13;;;;;;;38.78;18.83;;;;;;;5.19;86.35;100481.31;5244763;28;20055;-66
2022/03/30 03:18:45;;;;;;;40.95;19.98;;;;;;;5.15;86.60;100476.28;5250431;28;20032;-66
2022/03/30 03:21:16;;;;;;;36.72;18.92;;;;;;;5.10;85.68;100468.63;5244817;28;20029;-66
2022/03/30 03:23:47;;;;;;;38.17;20.20;;;;;;;5.14;87.04;100467.53;5251387;28;20206;-66
2022/03/30 03:26:19;;;;;;;43.55;19.67;;;;;;;5.16;87.74;100463.00;5250827;28;20036;-66
2022/03/30 03:28:50;;;;;;;42.50;20.52;;;;;;;5.06;86.75;100464.47;5248659;28;20068;-66
2022/03/30 03:31:21;;;;;;;42.72;19.70;;;;;;;5.09;86.65;100464.28;5248826;28;20024;-66
2022/03/30 03:33:53;;;;;;;37.13;19.05;;;;;;;5.03;86.09;100457.56;5249409;28;20647;-66
2022/03/30 03:36:24;;;;;;;37.03;18.27;;;;;;;5.02;86.22;100461.16;5244131;28;20476;-66
2022/03/30 03:38:55;;;;;;;39.95;19.23;;;;;;;5.02;86.89;100457.66;5247249;28;20698;-66
2022/03/30 03:41:27;;;;;;;38.95;18.90;;;;;;;4.96;87.07;100456.22;5252708;28;20112;-66
2022/03/30 03:43:58;;;;;;;38.90;18.48;;;;;;;4.83;86.55;100456.13;5254629;28;20617;-66
2022/03/30 03:46:30;;;;;;;36.88;19.35;;;;;;;4.84;87.82;100454.31;5250643;28;20727;-66
2022/03/30 03:49:01;;;;;;;41.05;19.38;;;;;;;4.74;87.55;100450.50;5254720;28;20789;-66
2022/03/30 03:51:32;;;;;;;38.50;20.60;;;;;;;4.71;89.35;100449.75;5242302;28;20399;-66
2022/03/30 03:54:04;;;;;;;37.13;19.20;;;;;;;4.60;88.35;100456.59;5244240;28;20617;-66
2022/03/30 03:56:35;;;;;;;38.88;19.00;;;;;;;4.64;88.83;100444.91;5243775;28;20029;-66
2022/03/30 03:59:06;;;;;;;40.95;19.65;;;;;;;4.56;88.34;100463.84;5247489;28;20106;-66
2022/03/30 04:01:38;;;;;;;39.17;19.13;;;;;;;4.59;89.12;100450.47;5244267;28;20479;-66
2022/03/30 04:04:09;;;;;;;37.97;19.05;;;;;;;4.56;89.14;100450.63;5240067;28;20037;-66
2022/03/30 04:06:40;;;;;;;35.00;18.88;;;;;;;4.56;88.52;100445.34;5246073;28;20056;-66
2022/03/30 04:09:12;;;;;;;41.83;20.33;;;;;;;4.45;90.03;100434.53;5246224;28;20032;-66
2022/03/30 04:11:43;;;;;;;41.00;19.98;;;;;;;4.49;90.06;100441.38;5242649;28;20061;-66
2022/03/30 04:14:15;;;;;;;43.85;19.00;;;;;;;4.43;89.37;100436.44;5242202;28;20033;-66
2022/03/30 04:16:47;;;;;;;36.90;18.60;;;;;;;4.35;89.87;100441.31;5244912;28;20036;-66
2022/03/30 04:19:18;;;;;;;41.25;19.75;;;;;;;4.28;89.16;100440.81;5247349;28;20043;-66
2022/03/30 04:21:49;;;;;;;39.17;19.13;;;;;;;4.25;89.58;100436.53;5240995;28;20545;-66
2022/03/30 04:24:21;;;;;;;39.05;19.10;;;;;;;4.20;89.42;100445.66;5244834;28;20025;-66
2022/03/30 04:26:53;;;;;;;39.95;18.35;;;;;;;4.20;89.85;100441.25;5249046;28;20112;-66
2022/03/30 04:29:24;;;;;;;38.83;19.80;;;;;;;4.18;90.67;100434.34;5240320;28;20517;-66
2022/03/30 04:31:55;;;;;;;40.75;19.98;;;;;;;4.09;90.13;100441.00;5249195;28;20487;-66
2022/03/30 04:34:26;;;;;;;35.97;18.90;;;;;;;4.12;90.77;100438.19;5239732;28;20033;-66
2022/03/30 04:36:58;;;;;;;39.20;20.23;;;;;;;3.97;90.15;100434.63;5239598;28;20094;-66
2022/03/30 04:39:29;;;;;;;44.08;19.55;;;;;;;3.92;90.62;100436.66;5247061;28;20033;-66
2022/03/30 04:42:01;;;;;;;43.83;20.67;;;;;;;3.88;90.91;100445.69;5272184;28;20094;-66
2022/03/30 04:44:32;;;;;;;37.65;19.65;;;;;;;3.82;91.40;100446.03;5255846;28;20037;-66
2022/03/30 04:47:03;;;;;;;49.53;20.55;;;;;;;3.75;91.55;100450.78;5258026;28;20041;-66
2022/03/30 04:49:35;;;;;;;45.25;19.90;;;;;;;3.74;92.59;100446.44;5254948;28;20037;-66
2022/03/30 04:52:06;;;;;;;39.83;20.20;;;;;;;3.70;92.40;100451.03;5252307;28;20056;-66
2022/03/30 04:54:38;;;;;;;47.65;20.80;;;;;;;3.57;93.72;100447.34;5256554;28;20035;-66
2022/03/30 04:57:09;;;;;;;47.83;20.98;;;;;;;3.49;93.77;100450.41;5250254;28;20032;-66
2022/03/30 04:59:42;;;;;;;40.17;20.60;;;;;;;3.44;93.89;100448.94;5251214;28;20043;-66
2022/03/30 05:02:14;;;;;;;47.20;22.08;;;;;;;3.43;93.81;100456.00;5248992;28;20398;-66
2022/03/30 05:04:45;;;;;;;46.05;20.98;;;;;;;3.37;94.50;100442.28;5249075;28;20025;-66
2022/03/30 05:07:16;;;;;;;53.63;22.52;;;;;;;3.28;94.58;100446.25;5249590;28;20107;-66
2022/03/30 05:09:47;;;;;;;45.90;20.55;;;;;;;3.28;94.86;100444.50;5248725;28;20360;-66
2022/03/30 05:12:19;;;;;;;42.75;21.13;;;;;;;3.20;94.93;100449.28;5244118;28;20398;-66
2022/03/30 05:14:50;;;;;;;42.85;20.88;;;;;;;3.22;95.30;100443.94;5254410;28;20649;-65
2022/03/30 05:17:22;;;;;;;46.33;21.55;;;;;;;3.19;95.35;100442.31;5252000;28;20044;-66
2022/03/30 05:19:53;;;;;;;48.10;22.00;;;;;;;3.13;95.09;100437.38;5246727;28;20056;-66
2022/03/30 05:22:25;;;;;;;39.72;20.65;;;;;;;3.17;95.04;100438.06;5250743;28;20318;-66
2022/03/30 05:24:56;;;;;;;46.72;21.60;;;;;;;3.15;95.15;100430.25;5247507;28;20372;-66
2022/03/30 05:27:28;;;;;;;44.78;21.35;;;;;;;3.10;95.57;100429.63;5250525;28;20175;-65
2022/03/30 05:29:59;;;;;;;44.90;20.77;;;;;;;3.05;95.56;100429.00;5253171;28;20116;-66
2022/03/30 05:32:31;;;;;;;44.97;21.90;;;;;;;3.15;96.50;100430.25;5251409;28;20455;-66
2022/03/30 05:35:04;;;;;;;47.35;22.20;;;;;;;3.08;96.10;100429.69;5246726;28;20395;-65
2022/03/30 05:37:35;;;;;;;48.47;21.45;;;;;;;3.02;96.00;100424.75;5248868;28;20385;-66
2022/03/30 05:40:09;;;;;;;52.55;21.83;;;;;;;3.08;96.05;100432.34;5249663;28;20474;-66
2022/03/30 05:42:41;;;;;;;44.65;20.13;;;;;;;3.02;96.28;100431.81;5248666;28;20471;-65
2022/03/30 05:45:12;;;;;;;40.95;21.00;;;;;;;3.12;96.14;100430.38;5250573;28;20021;-66
2022/03/30 05:47:44;;;;;;;43.97;21.15;;;;;;;3.08;96.34;100432.34;5252497;28;20041;-66
2022/03/30 05:50:15;;;;;;;46.40;20.17;;;;;;;3.04;96.31;100425.53;5253446;28;20112;-66
2022/03/30 05:52:47;;;;;;;49.00;21.75;;;;;;;3.04;95.83;100429.94;5249496;28;20041;-66
2022/03/30 05:55:18;;;;;;;44.22;20.10;;;;;;;3.03;96.55;100422.97;5253770;28;20128;-65
2022/03/30 05:57:50;;;;;;;50.95;22.25;;;;;;;3.07;96.93;100425.38;5254833;28;20049;-65
2022/03/30 06:00:22;;;;;;;45.50;21.15;;;;;;;3.08;95.97;100434.97;5251797;28;20494;-65
2022/03/30 06:02:53;;;;;;;47.72;22.00;;;;;;;3.06;96.63;100428.94;5249663;28;20426;-65
2022/03/30 06:05:24;;;;;;;47.83;22.52;;;;;;;3.03;96.95;100438.78;5251466;28;20036;-65
2022/03/30 06:07:58;;;;;;;40.72;20.52;;;;;;;3.09;96.90;100435.84;5254386;28;20056;-66
2022/03/30 06:10:30;;;;;;;45.60;21.55;;;;;;;3.10;97.17;100442.81;5247166;28;20031;-66
2022/03/30 06:13:02;;;;;;;49.78;21.98;;;;;;;3.10;97.42;100437.53;5252437;28;20036;-66
2022/03/30 06:15:34;;;;;;;42.08;21.58;;;;;;;3.20;98.10;100451.09;5255700;28;20045;-66
2022/03/30 06:18:10;;;;;;;47.75;21.75;;;;;;;3.11;97.45;100447.16;5246385;28;20033;-66
2022/03/30 06:20:42;;;;;;;45.63;21.90;;;;;;;3.17;97.05;100454.75;5250590;28;20035;-66
2022/03/30 06:23:13;;;;;;;46.45;21.95;;;;;;;3.20;97.15;100451.91;5250259;28;20029;-66
2022/03/30 06:25:45;;;;;;;45.97;21.85;;;;;;;3.23;97.15;100443.03;5251376;28;20029;-65
2022/03/30 06:28:17;;;;;;;42.75;21.05;;;;;;;3.31;98.18;100452.22;5247214;28;20040;-66
2022/03/30 06:30:49;;;;;;;45.40;22.40;;;;;;;3.29;98.02;100448.81;5248214;28;21158;-65
2022/03/30 06:33:20;;;;;;;46.05;22.75;;;;;;;3.43;98.44;100444.59;5246494;28;20417;-66
2022/03/30 06:35:51;;;;;;;46.50;22.65;;;;;;;3.42;98.23;100442.91;5250285;28;20024;-66
2022/03/30 06:38:23;;;;;;;51.50;21.85;;;;;;;3.51;98.54;100445.06;5251892;28;20331;-66
2022/03/30 06:40:54;;;;;;;42.58;21.27;;;;;;;3.50;97.89;100440.69;5241592;28;20328;-65
2022/03/30 06:43:25;;;;;;;45.75;22.60;;;;;;;3.61;97.77;100448.91;5245602;28;20720;-66
2022/03/30 06:45:56;;;;;;;43.08;21.67;;;;;;;3.60;96.85;100441.06;5244853;28;20079;-65
2022/03/30 06:48:30;;;;;;;46.65;21.20;;;;;;;3.64;97.12;100447.88;5243631;28;20040;-65
2022/03/30 06:51:02;;;;;;;44.55;22.73;;;;;;;3.72;96.84;100449.16;5240444;28;20029;-66
2022/03/30 06:53:33;;;;;;;46.17;21.42;;;;;;;3.78;97.75;100440.06;5242905;28;20047;-66
2022/03/30 06:56:04;;;;;;;50.80;21.00;;;;;;;3.85;97.57;100445.84;5237229;28;20033;-66
2022/03/30 06:58:36;;;;;;;41.88;21.05;;;;;;;3.89;97.13;100440.34;5237794;28;20025;-66
2022/03/30 07:01:07;;;;;;;44.10;19.85;;;;;;;3.91;95.62;100445.50;5244552;28;20029;-66
2022/03/30 07:03:39;;;;;;;45.55;21.02;;;;;;;3.92;94.77;100432.22;5242496;28;20112;-66
2022/03/30 07:06:11;;;;;;;38.50;19.10;;;;;;;4.08;95.37;100426.94;5235407;28;20056;-66
2022/03/30 07:11:32;;;;;;;38.33;19.48;;;;;;;4.24;95.18;100429.59;5251334;28;20037;-66
2022/03/30 07:14:04;;;;;;;41.58;19.05;;;;;;;4.26;93.94;100438.25;5236869;28;20033;-66
2022/03/30 07:16:35;;;;;;;40.25;19.42;;;;;;;4.38;93.54;100439.34;5252347;28;20487;-66
2022/03/30 07:19:06;;;;;;;38.88;18.77;;;;;;;4.51;94.95;100424.50;5252623;28;20458;-66
2022/03/30 07:21:38;;;;;;;42.20;18.23;;;;;;;4.59;93.99;100434.63;5247565;28;20144;-66
2022/03/30 07:24:10;;;;;;;40.95;19.73;;;;;;;4.78;94.10;100429.09;5245638;28;20472;-66
2022/03/30 07:26:41;;;;;;;41.53;19.35;;;;;;;4.89;92.46;100434.63;5255085;28;20110;-66
2022/03/30 07:29:12;;;;;;;41.63;19.75;;;;;;;5.07;92.49;100432.66;5250799;28;20037;-66
2022/03/30 07:31:44;;;;;;;39.35;19.52;;;;;;;5.23;91.88;100431.72;5243017;28;20468;-66
2022/03/30 07:34:15;;;;;;;41.53;19.50;;;;;;;5.39;90.99;100439.56;5247391;28;20033;-66
2022/03/30 07:36:48;;;;;;;45.33;19.27;;;;;;;5.56;89.60;100436.75;5244860;28;20025;-66
2022/03/30 07:39:19;;;;;;;33.72;17.58;;;;;;;5.64;87.03;100430.97;5248500;28;20033;-66
2022/03/30 07:41:51;;;;;;;33.67;17.13;;;;;;;5.85;87.29;100429.63;5237469;28;20036;-66
2022/03/30 07:44:22;;;;;;;36.33;17.50;;;;;;;5.98;87.61;100429.69;5245264;28;20117;-66
2022/03/30 07:46:54;;;;;;;34.30;17.38;;;;;;;6.14;nan;100426.94;5241943;28;20503;-66
2022/03/30 07:49:26;;;;;;;34.55;17.63;;;;;;;6.30;85.08;100421.47;5249273;28;20387;-66
2022/03/30 07:52:00;;;;;;;33.33;16.63;;;;;;;6.40;84.56;100422.56;5249609;28;20028;-66
2022/03/30 07:54:31;;;;;;;33.75;17.60;;;;;;;6.55;83.81;100422.50;5253015;28;20036;-66
2022/03/30 07:57:03;;;;;;;29.75;17.35;;;;;;;6.74;84.63;100428.28;5249283;28;20849;-66
2022/03/30 07:59:34;;;;;;;34.63;17.70;;;;;;;6.87;84.06;100421.19;5248531;28;20419;-66
2022/03/30 08:02:07;;;;;;;39.35;18.83;;;;;;;7.03;82.50;100422.78;5243017;28;20040;-66
2022/03/30 08:04:38;;;;;;;33.60;18.05;;;;;;;7.14;81.78;100430.88;5246743;28;20105;-66
2022/03/30 08:07:09;;;;;;;30.83;16.75;;;;;;;7.18;79.81;100435.00;5238106;28;20025;-66
2022/03/30 08:09:42;;;;;;;33.15;17.40;;;;;;;7.11;79.18;100427.56;5240362;28;20033;-66
2022/03/30 08:12:15;;;;;;;33.05;16.55;;;;;;;7.07;78.89;100441.03;5246297;28;20115;-66
2022/03/30 08:14:47;;;;;;;31.30;17.05;;;;;;;7.06;79.35;100436.69;5243623;28;20044;-65
2022/03/30 08:17:19;;;;;;;33.63;17.30;;;;;;;7.12;79.02;100439.91;5249406;28;20495;-66
2022/03/30 08:19:50;;;;;;;32.95;17.15;;;;;;;7.16;78.68;100434.25;5239947;28;20129;-66
2022/03/30 08:22:30;;;;;;;33.08;16.40;;;;;;;7.22;78.58;100436.50;5239073;28;20056;-66
2022/03/30 08:25:07;;;;;;;34.63;17.27;;;;;;;7.26;77.81;100445.94;5239647;28;20380;-66
2022/03/30 08:27:38;;;;;;;30.50;17.13;;;;;;;7.43;77.86;100435.97;5238280;28;20040;-66
2022/03/30 08:30:10;;;;;;;34.05;17.85;;;;;;;7.37;78.48;100436.41;5240665;28;20033;-66
2022/03/30 08:32:41;;;;;;;32.42;17.35;;;;;;;7.45;77.54;100440.19;5254585;28;20041;-66
2022/03/30 08:35:12;;;;;;;37.33;17.75;;;;;;;7.46;76.89;100436.59;5249753;28;20367;-66
2022/03/30 08:37:44;;;;;;;29.67;16.70;;;;;;;7.50;76.35;100431.94;5255855;28;20032;-66
2022/03/30 08:40:15;;;;;;;31.88;17.13;;;;;;;7.54;76.11;100432.56;5250397;28;20025;-66
2022/03/30 08:42:46;;;;;;;30.75;16.45;;;;;;;7.60;77.13;100427.66;5249660;28;20075;-66
2022/03/30 08:45:18;;;;;;;31.65;16.05;;;;;;;7.66;76.20;100424.56;5257251;28;20100;-66
2022/03/30 08:47:50;;;;;;;28.90;16.35;;;;;;;7.75;75.66;100423.06;5257847;28;20108;-66
2022/03/30 08:50:22;;;;;;;28.98;16.15;;;;;;;7.90;76.41;100418.47;5249241;28;20344;-66
2022/03/30 08:52:55;;;;;;;32.33;15.65;;;;;;;7.92;74.95;100410.38;5251112;28;20032;-66
2022/03/30 08:55:27;;;;;;;29.00;15.63;;;;;;;8.02;73.52;100414.91;5253709;28;20025;-66
2022/03/30 08:57:59;;;;;;;28.52;14.95;;;;;;;8.07;73.81;100417.22;5253538;28;20750;-66
2022/03/30 09:00:34;;;;;;;26.58;14.65;;;;;;;8.11;74.01;100415.19;5254659;28;20465;-66
2022/03/30 09:03:07;;;;;;;26.25;14.48;;;;;;;8.14;73.77;100414.97;5246352;28;20501;-66
2022/03/30 09:05:39;;;;;;;27.02;15.00;;;;;;;8.24;74.73;100414.16;5246747;28;20546;-66
2022/03/30 09:08:18;;;;;;;30.88;14.90;;;;;;;8.32;74.00;100415.41;5255071;28;20159;-66
2022/03/30 09:10:52;;;;;;;22.50;14.25;;;;;;;8.39;73.12;100414.84;5247065;28;20024;-66
2022/03/30 09:13:23;;;;;;;25.92;15.30;;;;;;;8.44;73.14;100415.41;5247941;28;20033;-66
2022/03/30 09:15:55;;;;;;;27.25;14.63;;;;;;;8.49;73.92;100411.53;5252898;28;20499;-65
2022/03/30 09:18:26;;;;;;;26.70;14.98;;;;;;;8.69;73.71;100404.75;5258374;28;20425;-65
2022/03/30 09:20:59;;;;;;;26.42;14.20;;;;;;;8.66;71.83;100408.47;5244398;28;20035;-65
2022/03/30 09:23:32;;;;;;;23.38;14.10;;;;;;;8.70;72.01;100404.59;5243207;28;20033;-66
2022/03/30 09:26:04;;;;;;;26.02;13.85;;;;;;;8.82;71.99;100405.47;5242401;28;20033;-66
2022/03/30 09:28:35;;;;;;;24.73;14.23;;;;;;;8.89;71.11;100396.06;5255923;28;20043;-65
2022/03/30 09:31:07;;;;;;;26.02;14.75;;;;;;;8.89;70.25;100397.91;5255099;28;20390;-65
2022/03/30 09:33:38;;;;;;;25.98;14.63;;;;;;;8.90;71.58;100392.47;5249894;28;20109;-66
2022/03/30 09:36:25;;;;;;;26.48;14.80;;;;;;;8.98;72.05;100391.88;5246070;28;20526;-66
2022/03/30 09:38:57;;;;;;;26.75;13.68;;;;;;;9.05;70.31;100379.78;5249331;28;20071;-65
2022/03/30 09:41:50;;;;;;;24.45;14.05;;;;;;;9.15;71.23;100383.41;5257330;28;20518;-65
2022/03/30 09:44:22;;;;;;;26.80;14.20;;;;;;;9.19;69.32;100384.88;5245584;28;20476;-65
2022/03/30 09:47:03;;;;;;;25.13;14.05;;;;;;;9.32;70.21;100384.78;5250640;28;20040;-66
2022/03/30 09:49:41;;;;;;;24.10;14.52;;;;;;;9.29;68.96;100382.34;5251558;28;20187;-66
2022/03/30 09:52:20;;;;;;;25.55;14.60;;;;;;;9.36;70.03;100377.41;5244910;28;20029;-66
2022/03/30 09:54:54;;;;;;;28.60;15.65;;;;;;;9.45;71.48;100376.63;5249315;28;20043;-66
2022/03/30 09:57:49;;;;;;;25.95;14.77;;;;;;;9.46;68.53;100380.16;5254607;28;20021;-66
2022/03/30 10:00:20;;;;;;;28.25;15.95;;;;;;;9.51;68.42;100384.16;5238415;28;20388;-66
2022/03/30 10:02:52;;;;;;;27.27;15.60;;;;;;;9.56;67.78;100368.66;5238994;28;20029;-66
2022/03/30 10:05:23;;;;;;;31.00;16.13;;;;;;;9.71;68.25;100373.72;5242659;28;20030;-66
2022/03/30 10:07:55;;;;;;;27.63;16.58;;;;;;;9.68;68.03;100368.63;5248336;28;20105;-66
2022/03/30 10:10:27;;;;;;;31.85;15.40;;;;;;;9.73;66.24;100364.63;5245778;28;20022;-66
2022/03/30 10:12:58;;;;;;;25.20;14.52;;;;;;;9.70;66.07;100356.88;5243592;28;20035;-66
2022/03/30 10:15:30;;;;;;;26.35;15.25;;;;;;;9.79;65.76;100364.13;5242324;28;20045;-66
2022/03/30 10:18:01;;;;;;;25.90;14.55;;;;;;;9.91;66.60;100369.44;5242398;28;20029;-66
2022/03/30 10:20:32;;;;;;;25.65;14.80;;;;;;;9.89;65.38;100363.38;5245314;28;20028;-66
2022/03/30 10:23:30;;;;;;;24.33;15.52;;;;;;;9.86;64.96;100353.84;5239612;28;20437;-66
2022/03/30 10:26:38;;;;;;;28.30;15.35;;;;;;;9.91;66.63;100356.09;5245904;28;20048;-66
2022/03/30 10:29:11;;;;;;;27.85;14.48;;;;;;;9.94;65.01;100351.38;5236432;28;20083;-66
2022/03/30 10:32:19;;;;;;;32.35;15.43;;;;;;;10.07;66.12;100353.03;5243114;28;20056;-66
2022/03/30 10:35:02;;;;;;;24.77;15.10;;;;;;;10.16;65.26;100353.16;5238781;28;20668;-66
2022/03/30 10:37:42;;;;;;;26.23;15.57;;;;;;;10.17;64.53;100351.31;5248623;28;20040;-66
2022/03/30 10:40:22;;;;;;;23.30;14.20;;;;;;;10.21;64.37;100336.75;5243701;28;20108;-66
2022/03/30 10:42:54;;;;;;;25.10;14.82;;;;;;;10.09;63.92;100343.13;5248230;28;20095;-66
2022/03/30 10:45:28;;;;;;;24.48;13.70;;;;;;;9.96;63.24;100332.59;5241175;28;20383;-66
2022/03/30 10:48:17;;;;;;;26.77;14.60;;;;;;;10.10;63.68;100329.63;5250813;28;20101;-66
2022/03/30 10:50:48;;;;;;;25.73;15.40;;;;;;;10.11;64.94;100323.34;5251098;28;20048;-66
2022/03/30 10:53:34;;;;;;;25.55;14.82;;;;;;;10.11;63.09;100323.34;5257042;28;20032;-66
2022/03/30 10:56:30;;;;;;;25.58;15.82;;;;;;;10.17;63.44;100324.66;5235364;28;20037;-67
2022/03/30 10:59:00;;;;;;;26.27;15.32;;;;;;;10.25;64.74;100316.84;5238555;28;20041;-66
2022/03/30 11:01:33;;;;;;;25.88;13.63;;;;;;;10.32;63.30;100314.56;5242695;28;20035;-66
2022/03/30 11:04:17;;;;;;;26.08;14.15;;;;;;;10.43;62.27;100316.31;5249794;28;20033;-66
2022/03/30 11:06:54;;;;;;;22.67;14.13;;;;;;;10.42;62.73;100311.97;5247654;28;20033;-68
2022/03/30 11:09:30;;;;;;;25.10;14.27;;;;;;;10.49;63.40;100305.13;5241722;28;20029;-66
2022/03/30 11:12:12;;;;;;;20.83;13.50;;;;;;;10.62;63.94;100302.25;5245406;28;20029;-66
2022/03/30 11:15:00;;;;;;;22.63;14.50;;;;;;;10.72;63.46;100298.69;5234818;28;20502;-66
2022/03/30 11:17:35;;;;;;;23.90;14.27;;;;;;;10.75;63.16;100293.06;5247862;28;20047;-66
2022/03/30 11:20:09;;;;;;;24.00;14.18;;;;;;;10.83;62.33;100283.56;5251057;28;20029;-65
2022/03/30 11:22:44;;;;;;;25.20;15.27;;;;;;;11.03;62.97;100279.16;5247976;28;20044;-65
2022/03/30 11:25:20;;;;;;;24.23;14.68;;;;;;;11.12;60.37;100279.22;5249906;28;20625;-65
2022/03/30 11:27:57;;;;;;;26.70;14.48;;;;;;;11.14;61.56;100276.38;5243195;28;20083;-66
2022/03/30 11:30:31;;;;;;;23.90;14.38;;;;;;;11.29;60.42;100274.19;5239245;28;20541;-66
2022/03/30 11:33:06;;;;;;;24.30;14.83;;;;;;;11.28;59.22;100267.16;5249081;28;20041;-66
2022/03/30 11:35:39;;;;;;;25.33;14.93;;;;;;;11.34;60.45;100256.78;5237358;28;20038;-66
2022/03/30 11:38:24;;;;;;;21.63;13.88;;;;;;;11.36;59.13;100259.31;5234550;28;20033;-66
2022/03/30 11:41:05;;;;;;;21.00;13.52;;;;;;;11.32;58.11;100263.25;5237570;28;20068;-66
2022/03/30 11:46:32;;;;;;;21.55;13.75;;;;;;;11.20;57.18;100251.84;5236888;28;20037;-65
2022/03/30 11:49:05;;;;;;;20.63;12.90;;;;;;;11.27;57.28;100260.97;5235063;28;20033;-66
2022/03/30 11:51:37;;;;;;;21.88;13.40;;;;;;;11.23;57.43;100248.03;5233209;28;20033;-65
2022/03/30 11:54:13;;;;;;;24.02;13.88;;;;;;;11.21;57.58;100253.50;5241129;28;20372;-65